createdAt,value
2019-04-07T00:00:08.954Z,69.83
2019-04-07T00:02:37.391Z,67.30
2019-04-07T00:05:13.640Z,68.67
2019-04-07T00:07:37.922Z,65.20
2019-04-07T00:10:10.061Z,61.63
2019-04-07T00:12:38.453Z,68.70
2019-04-07T00:15:07.054Z,60.50
2019-04-07T00:17:36.152Z,64.07
2019-04-07T00:20:07.332Z,62.33
2019-04-07T00:22:35.741Z,60.03
2019-04-07T00:25:05.383Z,64.63
2019-04-07T00:27:33.769Z,60.37
2019-04-07T00:30:02.441Z,62.23
2019-04-07T00:32:30.835Z,65.03
2019-04-07T00:34:59.884Z,64.77
2019-04-07T00:37:29.477Z,65.30
2019-04-07T00:39:58.940Z,76.60
2019-04-07T00:42:27.932Z,78.57
2019-04-07T00:44:56.347Z,82.67
2019-04-07T00:47:24.925Z,71.40
2019-04-07T00:49:53.401Z,81.57
2019-04-07T00:52:23.700Z,82.17
2019-04-07T00:54:52.700Z,82.60
2019-04-07T00:57:21.102Z,113.10
2019-04-07T00:59:49.495Z,116.70
2019-04-07T01:02:19.555Z,131.33
2019-04-07T01:04:47.964Z,142.00
2019-04-07T01:07:16.353Z,130.73
2019-04-07T01:09:45.310Z,129.73
2019-04-07T01:12:14.819Z,120.90
2019-04-07T01:14:44.244Z,120.60
2019-04-07T01:17:13.733Z,112.53
2019-04-07T01:19:43.512Z,117.53
2019-04-07T01:22:11.903Z,125.40
2019-04-07T01:24:40.641Z,129.23
2019-04-07T01:27:10.430Z,119.67
2019-04-07T01:29:39.953Z,93.23
2019-04-07T01:32:08.944Z,91.73
2019-04-07T01:34:37.348Z,88.67
2019-04-07T01:37:05.742Z,90.73
2019-04-07T01:39:34.868Z,89.33
2019-04-07T01:42:05.897Z,91.17
2019-04-07T01:44:37.159Z,101.67
2019-04-07T01:47:09.903Z,108.90
2019-04-07T01:49:55.554Z,89.00
2019-04-07T01:52:26.253Z,87.93
2019-04-07T01:55:12.937Z,99.93
2019-04-07T01:57:42.989Z,118.87
2019-04-07T02:00:19.984Z,118.37
2019-04-07T02:02:52.672Z,99.23
2019-04-07T02:05:39.308Z,113.13
2019-04-07T02:08:12.480Z,130.97
2019-04-07T02:10:45.892Z,137.10
2019-04-07T02:13:16.590Z,156.70
2019-04-07T02:16:02.883Z,137.10
2019-04-07T02:18:40.029Z,137.63
2019-04-07T02:21:10.576Z,118.83
2019-04-07T02:23:55.956Z,97.20
2019-04-07T02:26:25.984Z,97.27
2019-04-07T02:29:05.874Z,96.13
2019-04-07T02:31:54.035Z,92.47
2019-04-07T02:34:27.903Z,90.57
2019-04-07T02:37:03.001Z,83.33
2019-04-07T02:39:50.513Z,81.00
2019-04-07T02:42:30.404Z,88.97
2019-04-07T02:45:01.387Z,86.43
2019-04-07T02:47:35.304Z,84.77
2019-04-07T02:50:07.661Z,79.37
2019-04-07T02:52:54.679Z,89.40
2019-04-07T02:55:25.766Z,95.70
2019-04-07T02:57:58.112Z,77.97
2019-04-07T03:00:45.432Z,77.57
2019-04-07T03:03:34.347Z,81.67
2019-04-07T03:06:05.357Z,84.20
2019-04-07T03:08:38.453Z,89.77
2019-04-07T03:11:09.543Z,90.50
2019-04-07T03:13:52.148Z,91.47
2019-04-07T03:16:22.854Z,78.00
2019-04-07T03:18:52.960Z,77.47
2019-04-07T03:21:23.004Z,78.63
2019-04-07T03:23:56.497Z,91.17
2019-04-07T03:26:29.543Z,85.23
2019-04-07T03:29:16.178Z,87.20
2019-04-07T03:31:51.204Z,74.90
2019-04-07T03:34:38.774Z,74.00
2019-04-07T03:37:22.956Z,77.70
2019-04-07T03:39:44.248Z,75.27
2019-04-07T03:42:14.524Z,75.57
2019-04-07T03:44:48.934Z,71.53
2019-04-07T03:47:23.405Z,73.73
2019-04-07T03:49:54.932Z,76.23
2019-04-07T03:55:20.598Z,77.23
2019-04-07T03:58:10.018Z,77.93
2019-04-07T04:03:34.366Z,76.50
2019-04-07T04:06:11.777Z,76.07
2019-04-07T04:08:45.729Z,79.87
2019-04-07T04:11:19.112Z,80.17
2019-04-07T04:13:51.684Z,80.70
2019-04-07T04:16:20.180Z,78.10
2019-04-07T04:18:48.788Z,86.30
2019-04-07T04:21:17.724Z,89.87
2019-04-07T04:23:46.858Z,86.53
2019-04-07T04:26:15.236Z,89.10
2019-04-07T04:28:44.270Z,95.63
2019-04-07T04:31:14.042Z,113.70
2019-04-07T04:33:42.975Z,98.70
2019-04-07T04:36:11.389Z,85.47
2019-04-07T04:38:40.480Z,79.30
2019-04-07T04:41:10.107Z,83.83
2019-04-07T04:43:40.361Z,78.97
2019-04-07T04:46:10.951Z,88.17
2019-04-07T04:48:39.475Z,83.53
2019-04-07T04:51:08.598Z,95.30
2019-04-07T04:53:38.149Z,89.70
2019-04-07T04:56:07.643Z,100.43
2019-04-07T04:58:36.669Z,102.23
2019-04-07T05:01:05.081Z,109.73
2019-04-07T05:03:33.883Z,113.63
2019-04-07T05:06:03.671Z,126.67
2019-04-07T05:08:32.634Z,122.47
2019-04-07T05:11:01.610Z,133.37
2019-04-07T05:13:30.652Z,129.93
2019-04-07T05:15:59.427Z,110.77
2019-04-07T05:18:28.968Z,145.33
2019-04-07T05:20:58.217Z,124.23
2019-04-07T05:23:27.173Z,121.10
2019-04-07T05:25:55.706Z,131.73
2019-04-07T05:28:24.633Z,154.40
2019-04-07T05:30:53.384Z,148.43
2019-04-07T05:33:22.373Z,156.07
2019-04-07T05:35:50.772Z,168.73
2019-04-07T05:38:19.234Z,175.63
2019-04-07T05:40:47.643Z,162.97
2019-04-07T05:43:16.147Z,169.37
2019-04-07T05:45:45.466Z,159.90
2019-04-07T05:48:17.465Z,147.27
2019-04-07T05:50:44.913Z,121.43
2019-04-07T05:53:14.775Z,107.40
2019-04-07T05:55:43.768Z,111.13
2019-04-07T05:58:14.811Z,108.77
2019-04-07T06:00:45.740Z,104.90
2019-04-07T06:03:12.664Z,112.07
2019-04-07T06:05:41.059Z,116.97
2019-04-07T06:08:23.633Z,109.47
2019-04-07T06:10:40.299Z,114.53
2019-04-07T06:13:12.919Z,109.53
2019-04-07T06:15:40.307Z,115.70
2019-04-07T06:18:09.388Z,113.97
2019-04-07T06:20:38.036Z,102.20
2019-04-07T06:23:06.406Z,97.17
2019-04-07T06:25:38.770Z,97.30
2019-04-07T06:28:05.416Z,97.10
2019-04-07T06:30:36.098Z,92.93
2019-04-07T06:33:06.969Z,101.70
2019-04-07T06:35:34.777Z,98.10
2019-04-07T06:38:06.690Z,100.30
2019-04-07T06:40:33.849Z,96.07
2019-04-07T06:43:05.234Z,101.47
2019-04-07T06:45:40.830Z,96.87
2019-04-07T06:48:11.484Z,97.03
2019-04-07T06:50:54.809Z,92.63
2019-04-07T06:53:25.858Z,94.23
2019-04-07T06:56:00.068Z,115.40
2019-04-07T06:58:43.832Z,98.77
2019-04-07T07:01:29.654Z,166.83
2019-04-07T07:04:18.427Z,319.73
2019-04-07T07:06:48.505Z,214.67
2019-04-07T07:09:34.960Z,288.03
2019-04-07T07:12:19.196Z,93.13
2019-04-07T07:15:00.965Z,92.03
2019-04-07T07:17:36.524Z,86.50
2019-04-07T07:20:18.811Z,87.53
2019-04-07T07:22:52.663Z,80.33
2019-04-07T07:25:21.565Z,81.13
2019-04-07T07:27:49.961Z,80.13
2019-04-07T07:30:19.594Z,81.10
2019-04-07T07:32:48.649Z,80.47
2019-04-07T07:35:18.009Z,77.80
2019-04-07T07:37:47.606Z,78.00
2019-04-07T07:40:18.376Z,74.17
2019-04-07T07:42:49.812Z,76.93
2019-04-07T07:45:17.592Z,81.47
2019-04-07T07:47:51.379Z,74.30
2019-04-07T07:50:17.849Z,70.60
2019-04-07T07:52:49.251Z,66.10
2019-04-07T07:55:17.307Z,72.03
2019-04-07T07:57:45.676Z,67.07
2019-04-07T08:00:14.583Z,64.80
2019-04-07T08:02:44.317Z,60.50
2019-04-07T08:05:13.594Z,65.20
2019-04-07T08:07:45.733Z,64.07
2019-04-07T08:10:13.746Z,62.27
2019-04-07T08:12:42.189Z,54.47
2019-04-07T08:15:10.676Z,54.17
2019-04-07T08:17:39.166Z,55.60
2019-04-07T08:20:08.507Z,56.10
2019-04-07T08:22:42.335Z,51.70
2019-04-07T08:25:07.114Z,54.70
2019-04-07T08:27:35.558Z,55.63
2019-04-07T08:30:11.200Z,53.53
2019-04-07T08:32:37.213Z,53.37
2019-04-07T08:35:07.920Z,50.30
2019-04-07T08:37:36.503Z,56.13
2019-04-07T08:40:07.875Z,49.87
2019-04-07T08:42:36.938Z,49.70
2019-04-07T08:45:07.141Z,42.80
2019-04-07T08:47:35.628Z,44.20
2019-04-07T08:50:07.259Z,40.63
2019-04-07T08:52:40.580Z,43.57
2019-04-07T08:55:10.359Z,40.07
2019-04-07T08:57:38.427Z,40.90
2019-04-07T09:00:13.153Z,41.03
2019-04-07T09:02:39.083Z,42.10
2019-04-07T09:05:09.277Z,40.43
2019-04-07T09:07:37.939Z,38.43
2019-04-07T09:10:09.537Z,38.23
2019-04-07T09:12:37.932Z,35.53
2019-04-07T09:15:11.556Z,32.27
2019-04-07T09:17:45.949Z,34.60
2019-04-07T09:20:29.265Z,36.37
2019-04-07T09:23:15.428Z,33.03
2019-04-07T09:25:45.514Z,31.27
2019-04-07T09:28:32.209Z,32.23
2019-04-07T09:31:04.945Z,33.00
2019-04-07T09:33:36.931Z,35.53
2019-04-07T09:36:23.449Z,31.37
2019-04-07T09:39:00.709Z,27.10
2019-04-07T09:41:29.805Z,29.87
2019-04-07T09:44:17.341Z,27.73
2019-04-07T09:47:06.361Z,28.37
2019-04-07T09:49:36.614Z,27.90
2019-04-07T09:52:17.070Z,30.77
2019-04-07T09:55:04.576Z,30.63
2019-04-07T09:57:51.210Z,27.00
2019-04-07T10:00:25.136Z,29.80
2019-04-07T10:02:55.229Z,27.02
2019-04-07T10:05:40.912Z,27.80
2019-04-07T10:08:28.136Z,30.35
2019-04-07T10:11:01.744Z,26.42
2019-04-07T10:13:49.014Z,23.55
2019-04-07T10:16:21.084Z,25.37
2019-04-07T10:19:00.734Z,24.27
2019-04-07T10:21:46.585Z,22.80
2019-04-07T10:24:31.569Z,19.85
2019-04-07T10:27:05.896Z,23.45
2019-04-07T10:29:52.421Z,21.57
2019-04-07T10:32:41.774Z,19.60
2019-04-07T10:35:12.579Z,18.55
2019-04-07T10:37:45.092Z,21.07
2019-04-07T10:40:22.175Z,21.35
2019-04-07T10:43:10.682Z,23.80
2019-04-07T10:45:41.752Z,20.95
2019-04-07T10:48:25.767Z,21.90
2019-04-07T10:51:12.420Z,20.97
2019-04-07T10:53:58.727Z,21.27
2019-04-07T10:56:34.952Z,22.73
2019-04-07T10:59:11.450Z,23.12
2019-04-07T11:02:00.267Z,24.87
2019-04-07T11:04:39.803Z,25.92
2019-04-07T11:07:26.645Z,25.35
2019-04-07T11:10:03.715Z,26.02
2019-04-07T11:12:46.904Z,24.45
2019-04-07T11:15:22.796Z,24.47
2019-04-07T11:17:52.835Z,27.48
2019-04-07T11:20:22.989Z,25.60
2019-04-07T11:22:59.640Z,24.65
2019-04-07T11:25:32.740Z,67.72
2019-04-07T11:28:09.516Z,61.50
2019-04-07T11:30:42.125Z,28.35
2019-04-07T11:33:15.074Z,66.62
2019-04-07T11:35:52.121Z,25.02
2019-04-07T11:38:35.272Z,21.30
2019-04-07T11:41:12.410Z,26.73
2019-04-07T11:43:45.439Z,24.10
2019-04-07T11:46:31.788Z,21.77
2019-04-07T11:49:02.445Z,20.17
2019-04-07T11:51:39.003Z,21.57
2019-04-07T11:54:21.678Z,19.50
2019-04-07T11:57:20.422Z,19.77
2019-04-07T12:00:07.594Z,18.07
2019-04-07T12:02:40.444Z,17.87
2019-04-07T12:05:09.876Z,17.70
2019-04-07T12:07:43.580Z,17.95
2019-04-07T12:10:23.103Z,18.00
2019-04-07T12:12:53.816Z,18.07
2019-04-07T12:15:26.726Z,19.10
2019-04-07T12:18:01.429Z,17.70
2019-04-07T12:20:35.432Z,17.52
2019-04-07T12:23:25.191Z,15.93
2019-04-07T12:25:57.604Z,16.87
2019-04-07T12:28:47.588Z,18.35
2019-04-07T12:31:21.423Z,17.95
2019-04-07T12:34:00.092Z,17.37
2019-04-07T12:36:48.652Z,14.90
2019-04-07T12:39:33.597Z,14.38
2019-04-07T12:42:07.099Z,14.85
2019-04-07T12:44:39.874Z,14.35
2019-04-07T12:47:27.630Z,14.83
2019-04-07T12:50:16.663Z,15.00
2019-04-07T12:52:47.334Z,13.70
2019-04-07T12:55:37.231Z,13.65
2019-04-07T12:58:13.826Z,11.33
2019-04-07T13:01:09.813Z,14.20
2019-04-07T13:03:32.134Z,12.03
2019-04-07T13:06:09.256Z,12.07
2019-04-07T13:08:49.073Z,9.90
2019-04-07T13:11:31.221Z,9.53
2019-04-07T13:14:09.916Z,11.65
2019-04-07T13:16:49.257Z,10.88
2019-04-07T13:19:28.579Z,11.85
2019-04-07T13:22:01.610Z,10.80
2019-04-07T13:24:48.643Z,12.70
2019-04-07T13:27:35.240Z,10.93
2019-04-07T13:30:08.753Z,12.68
2019-04-07T13:32:43.231Z,12.95
2019-04-07T13:35:25.626Z,10.85
2019-04-07T13:38:05.566Z,10.23
2019-04-07T13:40:45.182Z,13.45
2019-04-07T13:43:33.201Z,10.18
2019-04-07T13:46:03.781Z,8.90
2019-04-07T13:48:37.915Z,9.33
2019-04-07T13:51:18.255Z,7.97
2019-04-07T13:54:05.614Z,6.40
2019-04-07T13:56:36.515Z,6.70
2019-04-07T13:59:09.848Z,7.03
2019-04-07T14:01:38.660Z,7.30
2019-04-07T14:04:14.195Z,5.83
2019-04-07T14:06:49.945Z,6.33
2019-04-07T14:09:22.717Z,5.90
2019-04-07T14:12:04.817Z,6.28
2019-04-07T14:14:44.692Z,5.65
2019-04-07T14:17:26.143Z,5.50
2019-04-07T14:19:55.384Z,4.95
2019-04-07T14:22:32.094Z,6.05
2019-04-07T14:25:20.190Z,7.30
2019-04-07T14:28:02.478Z,5.58
2019-04-07T14:30:33.949Z,5.47
2019-04-07T14:33:21.459Z,5.83
2019-04-07T14:36:04.323Z,5.60
2019-04-07T14:38:34.578Z,5.20
2019-04-07T14:41:13.919Z,4.87
2019-04-07T14:43:47.520Z,5.45
2019-04-07T14:46:37.901Z,21.15
2019-04-07T14:49:13.497Z,4.95
2019-04-07T14:51:59.133Z,5.47
2019-04-07T14:54:35.329Z,5.97
2019-04-07T14:57:07.344Z,4.92
2019-04-07T14:59:49.663Z,5.70
2019-04-07T15:02:18.064Z,5.08
2019-04-07T15:04:48.093Z,5.85
2019-04-07T15:07:21.572Z,5.70
2019-04-07T15:09:54.603Z,5.05
2019-04-07T15:12:31.995Z,4.92
2019-04-07T15:15:05.537Z,4.97
2019-04-07T15:17:30.521Z,5.40
2019-04-07T15:19:59.020Z,6.53
2019-04-07T15:22:29.948Z,5.20
2019-04-07T15:24:58.100Z,5.45
2019-04-07T15:27:27.318Z,5.30
2019-04-07T15:29:55.701Z,5.85
2019-04-07T15:32:27.344Z,5.15
2019-04-07T15:34:54.611Z,5.60
2019-04-07T15:37:25.011Z,8.93
2019-04-07T15:39:53.541Z,5.50
2019-04-07T15:42:33.118Z,6.15
2019-04-07T15:44:52.080Z,6.12
2019-04-07T15:47:21.909Z,5.90
2019-04-07T15:49:52.844Z,6.80
2019-04-07T15:52:21.850Z,6.28
2019-04-07T15:54:53.357Z,6.40
2019-04-07T15:57:22.010Z,5.62
2019-04-07T15:59:50.972Z,7.47
2019-04-07T16:02:19.525Z,6.17
2019-04-07T16:04:49.413Z,6.37
2019-04-07T16:07:18.699Z,5.62
2019-04-07T16:09:53.868Z,7.17
2019-04-07T16:12:18.068Z,6.22
2019-04-07T16:14:47.052Z,6.70
2019-04-07T16:17:16.914Z,6.83
2019-04-07T16:19:50.951Z,6.75
2019-04-07T16:22:16.943Z,5.90
2019-04-07T16:24:46.299Z,5.15
2019-04-07T16:27:15.228Z,5.87
2019-04-07T16:29:46.107Z,5.72
2019-04-07T16:32:14.613Z,5.45
2019-04-07T16:34:44.035Z,5.00
2019-04-07T16:37:13.822Z,5.12
2019-04-07T16:39:42.777Z,5.85
2019-04-07T16:42:11.193Z,7.30
2019-04-07T16:44:43.935Z,6.40
2019-04-07T16:47:19.550Z,6.20
2019-04-07T16:49:44.673Z,6.13
2019-04-07T16:52:09.958Z,6.33
2019-04-07T16:54:41.644Z,5.73
2019-04-07T16:57:09.325Z,4.93
2019-04-07T16:59:40.737Z,7.80
2019-04-07T17:02:08.131Z,5.97
2019-04-07T17:04:36.569Z,7.57
2019-04-07T17:07:08.875Z,7.77
2019-04-07T17:09:36.609Z,7.10
2019-04-07T17:12:05.417Z,6.17
2019-04-07T17:14:36.118Z,7.53
2019-04-07T17:17:04.827Z,8.03
2019-04-07T17:19:35.863Z,7.83
2019-04-07T17:22:05.007Z,12.33
2019-04-07T17:24:33.475Z,13.40
2019-04-07T17:27:03.047Z,9.60
2019-04-07T17:29:32.266Z,11.33
2019-04-07T17:32:02.838Z,39.13
2019-04-07T17:34:32.567Z,28.20
2019-04-07T17:37:01.052Z,13.93
2019-04-07T17:39:31.528Z,12.47
2019-04-07T17:42:00.373Z,12.17
2019-04-07T17:44:33.975Z,10.87
2019-04-07T17:47:04.181Z,11.67
2019-04-07T17:49:35.858Z,13.63
2019-04-07T17:52:12.761Z,10.40
2019-04-07T17:55:00.014Z,11.37
2019-04-07T17:57:34.810Z,10.60
2019-04-07T18:00:18.534Z,10.50
2019-04-07T18:03:10.300Z,9.63
2019-04-07T18:05:39.472Z,8.97
2019-04-07T18:08:28.341Z,8.10
2019-04-07T18:11:02.316Z,8.67
2019-04-07T18:13:41.970Z,8.23
2019-04-07T18:16:21.246Z,10.80
2019-04-07T18:19:04.434Z,9.53
2019-04-07T18:21:53.803Z,9.53
2019-04-07T18:24:40.464Z,9.20
2019-04-07T18:27:16.655Z,11.03
2019-04-07T18:29:54.989Z,9.43
2019-04-07T18:32:31.893Z,9.87
2019-04-07T18:35:02.585Z,9.33
2019-04-07T18:37:49.140Z,11.03
2019-04-07T18:40:26.339Z,11.93
2019-04-07T18:42:54.005Z,10.97
2019-04-07T18:45:45.949Z,8.83
2019-04-07T18:48:28.461Z,9.57
2019-04-07T18:51:00.898Z,9.97
2019-04-07T18:53:31.838Z,8.70
2019-04-07T18:56:03.435Z,9.07
2019-04-07T18:58:34.387Z,10.60
2019-04-07T19:01:08.876Z,9.57
2019-04-07T19:03:55.968Z,12.10
2019-04-07T19:06:26.561Z,11.23
2019-04-07T19:08:59.843Z,8.57
2019-04-07T19:11:31.101Z,10.73
2019-04-07T19:14:24.620Z,8.57
2019-04-07T19:16:50.424Z,12.37
2019-04-07T19:19:28.695Z,9.93
2019-04-07T19:22:10.990Z,11.77
2019-04-07T19:24:43.927Z,11.03
2019-04-07T19:27:31.472Z,10.67
2019-04-07T19:30:02.145Z,13.03
2019-04-07T19:32:41.225Z,10.57
2019-04-07T19:35:32.267Z,13.30
2019-04-07T19:38:14.214Z,10.17
2019-04-07T19:40:53.930Z,16.80
2019-04-07T19:43:29.255Z,13.43
2019-04-07T19:46:04.808Z,13.87
2019-04-07T19:48:44.928Z,11.30
2019-04-07T19:51:31.939Z,12.00
2019-04-07T19:54:05.219Z,13.23
2019-04-07T19:56:51.632Z,12.07
2019-04-07T19:59:21.780Z,16.70
2019-04-07T20:02:02.104Z,12.60
2019-04-07T20:04:44.862Z,11.97
2019-04-07T20:07:15.882Z,13.53
2019-04-07T20:09:48.350Z,15.73
2019-04-07T20:12:39.541Z,15.63
2019-04-07T20:15:18.332Z,11.60
2019-04-07T20:18:05.967Z,15.40
2019-04-07T20:20:46.498Z,13.50
2019-04-07T20:23:36.028Z,15.07
2019-04-07T20:26:08.810Z,40.77
2019-04-07T20:28:43.470Z,60.53
2019-04-07T20:31:19.437Z,43.90
2019-04-07T20:33:57.403Z,36.80
2019-04-07T20:36:33.848Z,46.67
2019-04-07T20:39:10.076Z,28.53
2019-04-07T20:41:46.882Z,18.90
2019-04-07T20:44:21.033Z,19.40
2019-04-07T20:47:07.914Z,15.03
2019-04-07T20:49:51.548Z,41.37
2019-04-07T20:52:25.004Z,58.60
2019-04-07T20:55:11.950Z,37.70
2019-04-07T20:57:48.210Z,96.27
2019-04-07T21:00:35.656Z,32.07
2019-04-07T21:03:19.795Z,17.07
2019-04-07T21:05:44.337Z,22.27
2019-04-07T21:08:14.981Z,26.50
2019-04-07T21:10:58.015Z,30.63
2019-04-07T21:13:28.957Z,72.70
2019-04-07T21:16:05.716Z,51.20
2019-04-07T21:18:44.938Z,60.37
2019-04-07T21:21:34.556Z,58.77
2019-04-07T21:24:19.838Z,60.73
2019-04-07T21:27:02.588Z,66.80
2019-04-07T21:29:38.599Z,67.27
2019-04-07T21:32:09.788Z,68.50
2019-04-07T21:34:43.060Z,72.57
2019-04-07T21:37:19.784Z,72.93
2019-04-07T21:39:53.657Z,80.13
2019-04-07T21:42:29.206Z,75.83
2019-04-07T21:45:05.420Z,77.50
2019-04-07T21:47:50.317Z,76.77
2019-04-07T21:50:26.651Z,86.07
2019-04-07T21:53:08.933Z,83.23
2019-04-07T21:55:56.171Z,83.17
2019-04-07T21:58:26.603Z,79.80
2019-04-07T22:01:05.079Z,78.73
2019-04-07T22:03:49.728Z,80.03
2019-04-07T22:06:23.178Z,83.17
2019-04-07T22:08:53.953Z,84.13
2019-04-07T22:11:25.373Z,82.90
2019-04-07T22:13:53.377Z,86.63
2019-04-07T22:16:24.142Z,88.70
2019-04-07T22:18:51.958Z,92.43
2019-04-07T22:21:22.302Z,87.17
2019-04-07T22:23:50.723Z,86.20
2019-04-07T22:26:20.317Z,87.97
2019-04-07T22:28:49.428Z,82.17
2019-04-07T22:31:19.451Z,86.17
2019-04-07T22:33:47.857Z,85.57
2019-04-07T22:36:16.733Z,85.20
2019-04-07T22:38:45.719Z,79.93
2019-04-07T22:41:14.114Z,80.07
2019-04-07T22:43:43.414Z,83.03
2019-04-07T22:46:17.476Z,83.53
2019-04-07T22:48:42.608Z,83.60
2019-04-07T22:51:12.490Z,75.67
2019-04-07T22:53:41.328Z,80.63
2019-04-07T22:56:10.307Z,82.87
2019-04-07T22:58:38.695Z,77.37
2019-04-07T23:01:07.720Z,79.83
2019-04-07T23:03:36.968Z,80.27
2019-04-07T23:06:05.984Z,84.37
2019-04-07T23:08:35.015Z,78.20
2019-04-07T23:11:04.473Z,77.93
2019-04-07T23:13:32.862Z,81.23
2019-04-07T23:16:10.589Z,85.73
2019-04-07T23:18:31.759Z,84.57
2019-04-07T23:21:01.138Z,83.43
2019-04-07T23:23:31.017Z,91.20
2019-04-07T23:26:00.020Z,93.23
2019-04-07T23:28:28.412Z,86.03
2019-04-07T23:30:56.967Z,84.70
2019-04-07T23:33:25.877Z,82.70
2019-04-07T23:35:54.278Z,81.67
2019-04-07T23:38:22.673Z,84.10
2019-04-07T23:40:51.508Z,82.33
2019-04-07T23:43:21.537Z,85.20
2019-04-07T23:45:50.600Z,86.57
2019-04-07T23:48:19.176Z,88.87
2019-04-07T23:50:48.172Z,85.20
2019-04-07T23:53:53.765Z,93.27
2019-04-07T23:56:22.803Z,87.33
2019-04-07T23:58:52.014Z,89.10
